Time;durP1;ratioP1;P1;durP2;ratioP2;P2;SDS_P1;SDS_P2;PMS_P1;PMS_P2;Temp;Humidity;BMP_temperature;BMP_pressure;BME280_temperature;BME280_humidity;BME280_pressure;Samples;Min_cycle;Max_cycle;Signal;HPM_P1;HPM_P2
2023/05/12 00:00:18;;;;;;;7.35;3.58;;;;;;;;;;5069355;28;20045;-72
2023/05/12 00:02:45;;;;;;;10.15;4.63;;;;;;;;;;5055282;28;20040;-72
2023/05/12 00:05:11;;;;;;;9.55;4.70;;;;;;;;;;5058999;28;20045;-71
2023/05/12 00:07:37;;;;;;;11.77;5.45;;;;;;;;;;5060000;28;20052;-71
2023/05/12 00:10:03;;;;;;;15.43;7.20;;;;;;;;;;5055945;28;20068;-71
2023/05/12 00:12:29;;;;;;;14.93;7.65;;;;;;;;;;5063622;28;20143;-72
2023/05/12 00:14:55;;;;;;;17.33;7.80;;;;;;;;;;5056800;28;20148;-72
2023/05/12 00:17:21;;;;;;;14.15;7.50;;;;;;;;;;5062427;28;20114;-71
2023/05/12 00:19:47;;;;;;;14.35;7.00;;;;;;;;;;5055024;28;20041;-72
2023/05/12 00:22:15;;;;;;;14.02;6.22;;;;;;;;;;5063298;28;20410;-72
2023/05/12 00:24:41;;;;;;;13.23;6.60;;;;;;;;;;5055030;28;20045;-72
2023/05/12 00:27:07;;;;;;;13.27;6.95;;;;;;;;;;5052436;28;20120;-72
2023/05/12 00:29:33;;;;;;;12.27;6.60;;;;;;;;;;5052883;28;20116;-72
2023/05/12 00:32:00;;;;;;;16.63;6.72;;;;;;;;;;5063256;28;20527;-72
2023/05/12 00:34:27;;;;;;;16.90;7.53;;;;;;;;;;5052879;28;20132;-72
2023/05/12 00:36:53;;;;;;;12.55;6.53;;;;;;;;;;5063081;28;20049;-72
2023/05/12 00:39:19;;;;;;;15.15;7.47;;;;;;;;;;5073940;28;20037;-72
2023/05/12 00:41:46;;;;;;;17.30;7.35;;;;;;;;;;5050084;28;20044;-72
2023/05/12 00:44:12;;;;;;;14.40;7.78;;;;;;;;;;5058259;28;20041;-72
2023/05/12 00:46:39;;;;;;;14.75;7.72;;;;;;;;;;5062654;28;20047;-73
2023/05/12 00:49:05;;;;;;;16.05;7.97;;;;;;;;;;5069224;28;20037;-73
2023/05/12 00:51:31;;;;;;;14.35;8.65;;;;;;;;;;5060701;28;20475;-73
2023/05/12 00:53:57;;;;;;;18.85;9.70;;;;;;;;;;5063194;28;20033;-73
2023/05/12 00:56:24;;;;;;;16.38;8.63;;;;;;;;;;5063750;28;20137;-73
2023/05/12 00:58:51;;;;;;;21.17;9.98;;;;;;;;;;5067395;28;20176;-73
2023/05/12 01:01:17;;;;;;;17.13;9.23;;;;;;;;;;5072738;28;20345;-73
2023/05/12 01:03:43;;;;;;;17.88;9.65;;;;;;;;;;5068815;28;20045;-73
2023/05/12 01:06:12;;;;;;;22.73;10.52;;;;;;;;;;5050173;28;20111;-73
2023/05/12 01:08:38;;;;;;;20.85;10.82;;;;;;;;;;5063792;28;20044;-73
2023/05/12 01:11:05;;;;;;;24.92;12.00;;;;;;;;;;5059617;28;20048;-73
2023/05/12 01:13:31;;;;;;;26.52;13.13;;;;;;;;;;5040372;28;20758;-73
2023/05/12 01:15:58;;;;;;;29.38;12.90;;;;;;;;;;5058635;28;20048;-73
2023/05/12 01:18:26;;;;;;;26.38;13.43;;;;;;;;;;5069626;28;20047;-73
2023/05/12 01:20:53;;;;;;;23.40;12.32;;;;;;;;;;5046469;28;20395;-73
2023/05/12 01:23:19;;;;;;;23.95;11.70;;;;;;;;;;5071114;28;20043;-73
2023/05/12 01:25:46;;;;;;;23.45;11.68;;;;;;;;;;5066274;28;20041;-73
2023/05/12 01:28:12;;;;;;;22.40;10.95;;;;;;;;;;5055985;28;20041;-73
2023/05/12 01:30:40;;;;;;;21.70;11.02;;;;;;;;;;5052106;28;20071;-73
2023/05/12 01:33:07;;;;;;;22.60;11.27;;;;;;;;;;5057510;28;20531;-73
2023/05/12 01:35:33;;;;;;;22.50;10.35;;;;;;;;;;5072109;28;20045;-73
2023/05/12 01:37:59;;;;;;;22.05;11.60;;;;;;;;;;5067615;28;20044;-73
2023/05/12 01:40:25;;;;;;;23.35;12.05;;;;;;;;;;5070460;28;20041;-73
2023/05/12 01:42:51;;;;;;;24.55;10.25;;;;;;;;;;5034197;28;20402;-73
2023/05/12 01:45:18;;;;;;;24.88;11.18;;;;;;;;;;5042320;28;20084;-73
2023/05/12 01:47:44;;;;;;;27.10;12.90;;;;;;;;;;5053998;28;20044;-73
2023/05/12 01:50:10;;;;;;;27.85;12.27;;;;;;;;;;5065157;28;20044;-73
2023/05/12 01:52:36;;;;;;;32.58;15.15;;;;;;;;;;5062313;28;20056;-73
2023/05/12 01:55:02;;;;;;;31.98;15.85;;;;;;;;;;5059331;28;20059;-73
2023/05/12 01:57:28;;;;;;;34.40;16.65;;;;;;;;;;5061839;28;20048;-73
2023/05/12 01:59:55;;;;;;;39.13;16.10;;;;;;;;;;5074899;28;20435;-73
2023/05/12 02:02:21;;;;;;;37.97;17.23;;;;;;;;;;5053110;28;20052;-73
2023/05/12 02:04:47;;;;;;;41.83;17.77;;;;;;;;;;5042374;28;20457;-73
2023/05/12 02:07:14;;;;;;;41.25;18.45;;;;;;;;;;5054840;28;20049;-73
2023/05/12 02:09:40;;;;;;;36.13;16.25;;;;;;;;;;5075002;28;20046;-73
2023/05/12 02:12:06;;;;;;;33.65;14.68;;;;;;;;;;5063529;28;20052;-75
2023/05/12 02:14:33;;;;;;;37.53;16.98;;;;;;;;;;5053644;28;20052;-73
2023/05/12 02:16:59;;;;;;;36.28;16.63;;;;;;;;;;5072040;28;20041;-73
2023/05/12 02:19:25;;;;;;;36.60;16.42;;;;;;;;;;5074347;28;20040;-73
2023/05/12 02:21:51;;;;;;;36.25;15.10;;;;;;;;;;5074286;28;20055;-73
2023/05/12 02:24:17;;;;;;;37.80;17.55;;;;;;;;;;5074417;28;20044;-73
2023/05/12 02:26:43;;;;;;;44.13;17.85;;;;;;;;;;5074740;28;20051;-73
2023/05/12 02:29:10;;;;;;;39.55;18.30;;;;;;;;;;5071582;28;20540;-73
2023/05/12 02:31:36;;;;;;;42.70;19.70;;;;;;;;;;5074420;28;20070;-73
2023/05/12 02:34:03;;;;;;;48.58;20.92;;;;;;;;;;5073963;28;20037;-73
2023/05/12 02:36:29;;;;;;;52.28;21.42;;;;;;;;;;5053819;28;20430;-73
2023/05/12 02:38:55;;;;;;;55.35;22.23;;;;;;;;;;5068512;28;20043;-73
2023/05/12 02:41:21;;;;;;;58.75;21.08;;;;;;;;;;5074036;28;20386;-73
2023/05/12 02:43:47;;;;;;;53.92;22.25;;;;;;;;;;5073262;28;20045;-73
2023/05/12 02:46:13;;;;;;;53.17;20.02;;;;;;;;;;5069793;28;20083;-73
2023/05/12 02:48:39;;;;;;;56.15;22.35;;;;;;;;;;5071855;28;20556;-73
2023/05/12 02:51:05;;;;;;;51.92;22.30;;;;;;;;;;5069167;28;20045;-73
2023/05/12 02:53:31;;;;;;;52.97;20.83;;;;;;;;;;5040841;28;20041;-73
2023/05/12 02:55:57;;;;;;;50.55;21.23;;;;;;;;;;5067980;28;21885;-73
2023/05/12 02:58:23;;;;;;;53.35;22.55;;;;;;;;;;5062265;28;20105;-73
2023/05/12 03:00:49;;;;;;;51.10;22.60;;;;;;;;;;5068436;28;20056;-73
2023/05/12 03:03:15;;;;;;;57.03;22.92;;;;;;;;;;5049482;28;20120;-73
2023/05/12 03:05:42;;;;;;;62.72;23.90;;;;;;;;;;5073465;28;20071;-73
2023/05/12 03:08:08;;;;;;;57.30;22.73;;;;;;;;;;5069294;28;20452;-73
2023/05/12 03:10:34;;;;;;;60.75;24.63;;;;;;;;;;5047049;28;20364;-73
2023/05/12 03:13:00;;;;;;;61.40;26.48;;;;;;;;;;5054615;28;20387;-73
2023/05/12 03:15:26;;;;;;;53.55;22.65;;;;;;;;;;5064813;28;20040;-73
2023/05/12 03:17:52;;;;;;;59.50;23.17;;;;;;;;;;5057472;28;20087;-73
2023/05/12 03:20:18;;;;;;;49.70;22.13;;;;;;;;;;5054555;28;20431;-73
2023/05/12 03:22:45;;;;;;;65.80;24.88;;;;;;;;;;5054965;28;20053;-73
2023/05/12 03:25:11;;;;;;;64.07;23.48;;;;;;;;;;5047857;28;20095;-73
2023/05/12 03:27:37;;;;;;;51.40;21.50;;;;;;;;;;5069140;28;20072;-73
2023/05/12 03:30:04;;;;;;;51.63;22.73;;;;;;;;;;5049454;28;20418;-73
2023/05/12 03:32:30;;;;;;;55.58;23.02;;;;;;;;;;5057769;28;20531;-73
2023/05/12 03:34:56;;;;;;;64.75;25.33;;;;;;;;;;5072179;28;20048;-73
2023/05/12 03:37:22;;;;;;;62.67;24.50;;;;;;;;;;5063808;28;20040;-73
2023/05/12 03:39:48;;;;;;;54.70;23.00;;;;;;;;;;5060152;28;20055;-73
2023/05/12 03:42:14;;;;;;;55.55;24.63;;;;;;;;;;5058386;28;20044;-73
2023/05/12 03:44:41;;;;;;;60.22;22.85;;;;;;;;;;5056542;28;20033;-73
2023/05/12 03:47:07;;;;;;;66.07;24.63;;;;;;;;;;5063827;28;20351;-73
2023/05/12 03:49:33;;;;;;;56.30;23.58;;;;;;;;;;5056766;28;20068;-73
2023/05/12 03:51:59;;;;;;;62.17;26.17;;;;;;;;;;5067982;28;20047;-73
2023/05/12 03:54:25;;;;;;;67.25;24.50;;;;;;;;;;5059527;28;20044;-73
2023/05/12 03:56:52;;;;;;;60.17;24.48;;;;;;;;;;5033724;28;20051;-73
2023/05/12 03:59:18;;;;;;;66.03;25.70;;;;;;;;;;5062547;28;20043;-73
2023/05/12 04:01:44;;;;;;;63.83;25.17;;;;;;;;;;5052693;28;20036;-73
2023/05/12 04:04:10;;;;;;;65.18;24.85;;;;;;;;;;5054662;28;20029;-73
2023/05/12 04:06:37;;;;;;;58.20;24.48;;;;;;;;;;5036502;28;20051;-73
2023/05/12 04:09:03;;;;;;;63.38;26.45;;;;;;;;;;5046017;28;20053;-73
2023/05/12 04:11:29;;;;;;;62.78;27.58;;;;;;;;;;5062241;28;20166;-73
2023/05/12 04:13:55;;;;;;;65.32;27.83;;;;;;;;;;5065032;28;20048;-73
2023/05/12 04:16:21;;;;;;;65.20;26.25;;;;;;;;;;5061272;28;20129;-73
2023/05/12 04:18:48;;;;;;;65.38;26.20;;;;;;;;;;5058438;28;20426;-73
2023/05/12 04:21:14;;;;;;;72.43;27.70;;;;;;;;;;5062503;28;20079;-73
2023/05/12 04:23:40;;;;;;;61.42;25.20;;;;;;;;;;5067599;28;20079;-73
2023/05/12 04:26:06;;;;;;;65.20;27.88;;;;;;;;;;5041179;28;20048;-73
2023/05/12 04:28:32;;;;;;;65.30;26.27;;;;;;;;;;5047953;28;20052;-73
2023/05/12 04:31:02;;;;;;;69.80;27.75;;;;;;;;;;5072115;28;20056;-73
2023/05/12 04:33:28;;;;;;;71.43;26.05;;;;;;;;;;5057082;28;20048;-73
2023/05/12 04:35:55;;;;;;;60.88;26.63;;;;;;;;;;5066448;28;20498;-73
2023/05/12 04:38:21;;;;;;;71.85;27.77;;;;;;;;;;5056638;28;20048;-73
2023/05/12 04:40:47;;;;;;;73.35;29.23;;;;;;;;;;5071894;28;20068;-73
2023/05/12 04:43:13;;;;;;;65.05;27.50;;;;;;;;;;5044710;28;20113;-73
2023/05/12 04:45:39;;;;;;;70.80;26.98;;;;;;;;;;5073251;28;20570;-73
2023/05/12 04:48:06;;;;;;;68.72;28.05;;;;;;;;;;5062289;28;20068;-73
2023/05/12 04:50:32;;;;;;;80.22;29.45;;;;;;;;;;5058552;28;20049;-73
2023/05/12 04:52:58;;;;;;;82.88;30.38;;;;;;;;;;5078373;28;20041;-72
2023/05/12 04:55:24;;;;;;;67.97;28.90;;;;;;;;;;5060533;28;20056;-73
2023/05/12 04:57:50;;;;;;;67.75;28.55;;;;;;;;;;5062643;28;20478;-73
2023/05/12 05:00:16;;;;;;;68.78;30.13;;;;;;;;;;5071609;28;20067;-73
2023/05/12 05:02:42;;;;;;;67.18;28.38;;;;;;;;;;5060835;28;20444;-73
2023/05/12 05:05:09;;;;;;;71.65;28.73;;;;;;;;;;5060751;28;20094;-73
2023/05/12 05:07:35;;;;;;;71.85;30.48;;;;;;;;;;5047352;28;20128;-74
2023/05/12 05:10:01;;;;;;;73.22;28.55;;;;;;;;;;5062052;28;20552;-73
2023/05/12 05:12:27;;;;;;;75.85;29.98;;;;;;;;;;5061346;28;20044;-73
2023/05/12 05:14:53;;;;;;;64.25;29.70;;;;;;;;;;5068530;28;20033;-73
2023/05/12 05:17:19;;;;;;;59.25;26.25;;;;;;;;;;5062929;28;20094;-73
2023/05/12 05:19:45;;;;;;;70.40;29.55;;;;;;;;;;5071020;28;20048;-73
2023/05/12 05:22:11;;;;;;;62.65;28.80;;;;;;;;;;5066742;28;20116;-74
2023/05/12 05:24:37;;;;;;;66.65;28.48;;;;;;;;;;5044324;28;20153;-73
2023/05/12 05:27:03;;;;;;;64.50;28.00;;;;;;;;;;5063967;28;20348;-73
2023/05/12 05:29:29;;;;;;;55.83;27.77;;;;;;;;;;5033030;28;20045;-74
2023/05/12 05:31:55;;;;;;;59.95;27.20;;;;;;;;;;5058099;28;20106;-73
2023/05/12 05:34:22;;;;;;;63.42;27.23;;;;;;;;;;5067406;28;20071;-73
2023/05/12 05:36:48;;;;;;;53.00;26.85;;;;;;;;;;5054991;28;20056;-74
2023/05/12 05:39:14;;;;;;;55.75;26.27;;;;;;;;;;5058143;28;20036;-74
2023/05/12 05:41:40;;;;;;;59.40;28.17;;;;;;;;;;5073742;28;20085;-74
2023/05/12 05:44:06;;;;;;;58.17;28.88;;;;;;;;;;5055993;28;20045;-74
2023/05/12 05:46:32;;;;;;;52.92;27.83;;;;;;;;;;5065256;28;20469;-74
2023/05/12 05:48:58;;;;;;;61.42;29.75;;;;;;;;;;5061005;28;20051;-74
2023/05/12 05:51:24;;;;;;;60.58;29.67;;;;;;;;;;5066952;28;20032;-77
2023/05/12 05:53:50;;;;;;;53.15;28.42;;;;;;;;;;5061869;28;20037;-74
2023/05/12 05:56:16;;;;;;;61.28;27.25;;;;;;;;;;5067530;28;20061;-74
2023/05/12 05:58:42;;;;;;;51.63;27.83;;;;;;;;;;5056875;28;20048;-74
2023/05/12 06:01:08;;;;;;;52.70;28.48;;;;;;;;;;5064476;28;20099;-74
2023/05/12 06:03:34;;;;;;;55.80;29.33;;;;;;;;;;5059583;28;20041;-74
2023/05/12 06:06:00;;;;;;;51.55;28.10;;;;;;;;;;5054667;28;20068;-74
2023/05/12 06:08:26;;;;;;;51.78;28.75;;;;;;;;;;5023334;28;1114205;-74
2023/05/12 06:10:52;;;;;;;53.30;27.23;;;;;;;;;;5059275;28;20059;-74
2023/05/12 06:13:18;;;;;;;49.58;26.45;;;;;;;;;;5055164;28;20040;-74
2023/05/12 06:15:44;;;;;;;51.78;26.63;;;;;;;;;;5057406;28;20036;-74
2023/05/12 06:18:10;;;;;;;45.08;25.52;;;;;;;;;;5061928;28;20091;-74
2023/05/12 06:20:36;;;;;;;48.65;27.88;;;;;;;;;;5057348;28;20040;-74
2023/05/12 06:23:02;;;;;;;45.17;26.10;;;;;;;;;;5055357;28;20040;-74
2023/05/12 06:25:28;;;;;;;45.10;24.60;;;;;;;;;;5062701;28;20041;-74
2023/05/12 06:27:54;;;;;;;44.45;26.23;;;;;;;;;;5067971;28;20045;-74
2023/05/12 06:30:20;;;;;;;44.33;25.77;;;;;;;;;;5056260;28;20050;-74
2023/05/12 06:32:47;;;;;;;43.25;27.13;;;;;;;;;;5050877;28;20037;-73
2023/05/12 06:35:13;;;;;;;45.05;26.35;;;;;;;;;;5061966;28;20394;-74
2023/05/12 06:37:39;;;;;;;46.63;26.15;;;;;;;;;;5056622;28;20551;-74
2023/05/12 06:40:06;;;;;;;43.55;26.65;;;;;;;;;;5054026;28;20069;-76
2023/05/12 06:42:32;;;;;;;49.35;27.33;;;;;;;;;;5055104;28;20053;-74
2023/05/12 06:44:59;;;;;;;44.55;25.77;;;;;;;;;;5062578;28;20074;-74
2023/05/12 06:47:25;;;;;;;50.15;25.90;;;;;;;;;;5059436;28;20051;-74
2023/05/12 06:49:51;;;;;;;44.47;24.30;;;;;;;;;;5060856;28;20486;-74
2023/05/12 06:52:19;;;;;;;38.85;24.70;;;;;;;;;;5071353;28;20040;-74
2023/05/12 06:54:45;;;;;;;44.20;24.58;;;;;;;;;;5073753;28;20115;-74
2023/05/12 06:57:11;;;;;;;41.05;26.02;;;;;;;;;;5060044;28;20115;-74
2023/05/12 06:59:37;;;;;;;43.85;26.40;;;;;;;;;;5054384;28;20083;-74
2023/05/12 07:02:03;;;;;;;42.28;25.55;;;;;;;;;;5069260;28;20048;-74
2023/05/12 07:04:29;;;;;;;41.72;25.63;;;;;;;;;;5063397;28;20040;-74
2023/05/12 07:06:55;;;;;;;43.90;25.30;;;;;;;;;;5071228;28;20040;-74
2023/05/12 07:09:22;;;;;;;41.55;26.58;;;;;;;;;;5062541;28;20096;-74
2023/05/12 07:11:48;;;;;;;47.17;26.83;;;;;;;;;;5062022;28;20045;-75
2023/05/12 07:14:14;;;;;;;44.63;26.35;;;;;;;;;;5068267;28;20414;-75
2023/05/12 07:16:40;;;;;;;42.65;27.42;;;;;;;;;;5053942;28;20033;-74
2023/05/12 07:19:07;;;;;;;41.20;27.63;;;;;;;;;;5053914;28;20045;-74
2023/05/12 07:21:33;;;;;;;40.72;27.70;;;;;;;;;;5065594;28;20063;-74
2023/05/12 07:23:59;;;;;;;47.17;29.13;;;;;;;;;;5069242;28;20495;-75
2023/05/12 07:26:27;;;;;;;39.95;26.55;;;;;;;;;;5057421;28;20843;-74
2023/05/12 07:28:53;;;;;;;41.35;27.38;;;;;;;;;;5043591;28;20068;-74
2023/05/12 07:31:19;;;;;;;44.22;27.80;;;;;;;;;;5066932;28;20072;-74
2023/05/12 07:33:45;;;;;;;41.33;27.48;;;;;;;;;;5057077;28;20402;-74
2023/05/12 07:36:11;;;;;;;49.75;29.20;;;;;;;;;;5065609;28;20132;-74
2023/05/12 07:38:37;;;;;;;44.38;28.73;;;;;;;;;;5053742;28;20447;-74
2023/05/12 07:41:03;;;;;;;46.33;29.20;;;;;;;;;;5067293;28;20052;-75
2023/05/12 07:43:29;;;;;;;44.08;28.10;;;;;;;;;;5058273;28;20041;-74
2023/05/12 07:45:58;;;;;;;41.55;28.20;;;;;;;;;;5054345;28;20117;-80
2023/05/12 07:48:24;;;;;;;45.28;28.48;;;;;;;;;;5053694;28;20052;-74
2023/05/12 07:50:50;;;;;;;44.70;28.55;;;;;;;;;;5067983;28;20071;-75
2023/05/12 07:53:16;;;;;;;43.88;28.63;;;;;;;;;;5072243;28;20052;-75
2023/05/12 07:55:42;;;;;;;42.42;27.38;;;;;;;;;;5053850;28;20094;-75
2023/05/12 07:58:09;;;;;;;41.33;28.77;;;;;;;;;;5069120;28;20064;-75
2023/05/12 08:00:35;;;;;;;40.35;27.65;;;;;;;;;;5046235;28;20503;-75
2023/05/12 08:03:01;;;;;;;37.22;27.60;;;;;;;;;;5055391;28;20094;-75
2023/05/12 08:05:27;;;;;;;40.28;28.75;;;;;;;;;;5053704;28;20052;-76
2023/05/12 08:07:53;;;;;;;44.13;29.48;;;;;;;;;;5060188;28;20179;-75
2023/05/12 08:10:19;;;;;;;37.28;28.02;;;;;;;;;;5054642;28;20045;-75
2023/05/12 08:12:45;;;;;;;40.78;27.67;;;;;;;;;;5043743;28;20045;-74
2023/05/12 08:15:11;;;;;;;38.92;27.85;;;;;;;;;;5057887;28;20048;-75
2023/05/12 08:17:37;;;;;;;40.42;28.25;;;;;;;;;;5031754;28;20059;-74
2023/05/12 08:20:04;;;;;;;43.08;29.48;;;;;;;;;;5058860;28;20036;-74
2023/05/12 08:22:30;;;;;;;44.15;27.75;;;;;;;;;;5064617;28;20091;-74
2023/05/12 08:24:56;;;;;;;43.47;30.33;;;;;;;;;;5035649;28;20067;-74
2023/05/12 08:27:22;;;;;;;41.42;28.33;;;;;;;;;;5060116;28;20056;-74
2023/05/12 08:29:48;;;;;;;40.28;28.05;;;;;;;;;;5052579;28;20037;-74
2023/05/12 08:32:15;;;;;;;42.33;29.20;;;;;;;;;;5034670;28;20436;-74
2023/05/12 08:34:41;;;;;;;41.67;28.95;;;;;;;;;;5068881;28;20083;-74
2023/05/12 08:37:07;;;;;;;39.10;28.98;;;;;;;;;;5054617;28;20052;-74
2023/05/12 08:39:34;;;;;;;40.05;28.75;;;;;;;;;;5058044;28;20040;-74
2023/05/12 08:42:08;;;;;;;43.33;29.80;;;;;;;;;;5052394;28;20049;-74
2023/05/12 08:44:34;;;;;;;39.03;29.27;;;;;;;;;;5034668;28;20529;-74
2023/05/12 08:47:01;;;;;;;38.05;29.13;;;;;;;;;;5061083;28;20357;-74
2023/05/12 08:49:29;;;;;;;39.05;28.55;;;;;;;;;;5063341;28;20506;-74
2023/05/12 08:51:56;;;;;;;43.83;30.42;;;;;;;;;;5070879;28;20375;-74
2023/05/12 08:54:23;;;;;;;41.17;29.45;;;;;;;;;;5030264;28;20124;-74
2023/05/12 08:56:51;;;;;;;42.35;29.33;;;;;;;;;;5031382;28;20052;-74
2023/05/12 08:59:17;;;;;;;38.00;26.95;;;;;;;;;;5065904;28;20033;-74
2023/05/12 09:01:46;;;;;;;37.83;28.80;;;;;;;;;;5026555;28;20056;-74
2023/05/12 09:04:14;;;;;;;41.53;30.23;;;;;;;;;;5055844;28;20045;-74
2023/05/12 09:06:40;;;;;;;37.22;27.08;;;;;;;;;;5072201;28;20049;-75
2023/05/12 09:09:06;;;;;;;38.08;28.33;;;;;;;;;;5067321;28;20085;-75
2023/05/12 09:11:32;;;;;;;38.70;27.52;;;;;;;;;;5056324;28;20057;-75
2023/05/12 09:14:08;;;;;;;34.42;26.80;;;;;;;;;;5065874;28;20052;-75
2023/05/12 09:16:37;;;;;;;37.30;28.67;;;;;;;;;;5071482;28;20041;-75
2023/05/12 09:19:03;;;;;;;36.90;28.30;;;;;;;;;;5056432;28;20120;-75
2023/05/12 09:21:29;;;;;;;36.28;26.92;;;;;;;;;;5073146;28;20110;-74
2023/05/12 09:23:58;;;;;;;35.47;25.83;;;;;;;;;;5075466;28;20511;-74
2023/05/12 09:26:25;;;;;;;37.65;29.10;;;;;;;;;;5061124;28;20052;-74
2023/05/12 09:29:10;;;;;;;38.13;27.95;;;;;;;;;;5061181;28;20044;-78
2023/05/12 09:31:36;;;;;;;33.95;25.55;;;;;;;;;;5046405;28;20037;-75
2023/05/12 09:34:06;;;;;;;32.33;24.95;;;;;;;;;;5057980;28;20606;-75
2023/05/12 09:36:33;;;;;;;33.22;26.08;;;;;;;;;;5075208;28;20056;-75
2023/05/12 09:39:03;;;;;;;33.05;26.25;;;;;;;;;;5057150;28;20119;-75
2023/05/12 09:41:29;;;;;;;32.67;26.33;;;;;;;;;;5058148;28;20041;-75
2023/05/12 09:43:55;;;;;;;32.97;26.50;;;;;;;;;;5065074;28;20048;-75
2023/05/12 09:46:22;;;;;;;33.30;26.25;;;;;;;;;;5056199;28;20033;-75
2023/05/12 09:48:48;;;;;;;30.95;24.65;;;;;;;;;;5066462;28;20478;-75
2023/05/12 09:51:17;;;;;;;30.90;25.13;;;;;;;;;;5051699;28;20067;-75
2023/05/12 09:53:45;;;;;;;31.23;26.42;;;;;;;;;;5068361;28;20048;-75
2023/05/12 09:56:14;;;;;;;29.90;23.92;;;;;;;;;;5070622;28;20395;-75
2023/05/12 09:58:43;;;;;;;33.63;26.45;;;;;;;;;;5058957;28;20430;-75
2023/05/12 10:01:11;;;;;;;29.80;24.70;;;;;;;;;;5064729;28;20041;-74
2023/05/12 10:03:38;;;;;;;32.20;24.58;;;;;;;;;;5058704;28;20090;-74
2023/05/12 10:06:05;;;;;;;33.53;25.75;;;;;;;;;;5068564;28;20036;-74
2023/05/12 10:08:34;;;;;;;34.42;26.27;;;;;;;;;;5065249;28;20064;-74
2023/05/12 10:11:01;;;;;;;29.33;24.27;;;;;;;;;;5073289;28;20044;-74
2023/05/12 10:13:27;;;;;;;31.45;24.50;;;;;;;;;;5056690;28;20044;-74
2023/05/12 10:15:56;;;;;;;23.95;21.00;;;;;;;;;;5053050;28;20419;-75
2023/05/12 10:18:22;;;;;;;23.95;21.30;;;;;;;;;;5072795;28;20051;-74
2023/05/12 10:20:48;;;;;;;27.38;19.55;;;;;;;;;;5073054;28;20040;-74
2023/05/12 10:23:16;;;;;;;20.80;17.38;;;;;;;;;;5055791;28;20040;-74
2023/05/12 10:25:42;;;;;;;23.75;19.95;;;;;;;;;;5052483;28;20123;-75
2023/05/12 10:28:09;;;;;;;22.08;17.77;;;;;;;;;;5073660;28;20075;-75
2023/05/12 10:30:36;;;;;;;21.30;16.70;;;;;;;;;;5058903;28;20364;-75
2023/05/12 10:33:02;;;;;;;19.42;16.67;;;;;;;;;;5064984;28;20042;-75
2023/05/12 10:35:32;;;;;;;20.20;16.55;;;;;;;;;;5068075;28;20041;-75
2023/05/12 10:38:18;;;;;;;20.98;17.60;;;;;;;;;;5041870;28;20041;-75
2023/05/12 10:41:00;;;;;;;22.75;18.00;;;;;;;;;;5074319;28;20098;-75
2023/05/12 10:43:28;;;;;;;18.17;16.08;;;;;;;;;;5067965;28;20109;-75
2023/05/12 10:46:12;;;;;;;18.75;16.60;;;;;;;;;;5060938;28;20502;-75
2023/05/12 10:48:50;;;;;;;19.10;16.30;;;;;;;;;;5052431;28;20037;-75
2023/05/12 10:51:22;;;;;;;21.35;16.40;;;;;;;;;;5067215;28;20051;-75
2023/05/12 10:53:51;;;;;;;19.38;15.27;;;;;;;;;;5055570;28;20052;-75
2023/05/12 10:56:24;;;;;;;15.93;14.27;;;;;;;;;;5073271;28;20069;-75
2023/05/12 10:59:11;;;;;;;19.13;15.52;;;;;;;;;;5069671;28;20048;-75
2023/05/12 11:01:37;;;;;;;17.00;15.20;;;;;;;;;;5066831;28;20115;-75
2023/05/12 11:04:18;;;;;;;19.15;16.60;;;;;;;;;;5073972;28;20037;-75
2023/05/12 11:06:44;;;;;;;17.25;15.23;;;;;;;;;;5073662;28;20044;-75
2023/05/12 11:09:11;;;;;;;16.88;15.15;;;;;;;;;;5063092;28;20048;-75
2023/05/12 11:11:37;;;;;;;20.80;17.02;;;;;;;;;;5069587;28;20075;-75
2023/05/12 11:14:03;;;;;;;18.10;13.13;;;;;;;;;;5073698;28;20044;-75
2023/05/12 11:16:29;;;;;;;13.93;12.52;;;;;;;;;;5071698;28;20383;-75
2023/05/12 11:19:02;;;;;;;16.85;13.85;;;;;;;;;;5053075;28;20045;-75
2023/05/12 11:21:29;;;;;;;18.42;15.80;;;;;;;;;;5058383;28;20032;-75
2023/05/12 11:23:55;;;;;;;19.75;14.90;;;;;;;;;;5042367;28;20077;-75
2023/05/12 11:26:21;;;;;;;19.42;16.67;;;;;;;;;;5076289;28;20060;-75
2023/05/12 11:28:47;;;;;;;17.90;15.57;;;;;;;;;;5073616;28;20049;-75
2023/05/12 11:31:18;;;;;;;16.75;14.13;;;;;;;;;;5056470;28;20049;-75
2023/05/12 11:33:44;;;;;;;19.35;14.27;;;;;;;;;;5052116;28;20044;-75
2023/05/12 11:36:11;;;;;;;16.15;13.52;;;;;;;;;;5058295;28;20047;-75
2023/05/12 11:38:37;;;;;;;19.08;12.95;;;;;;;;;;5073601;28;20055;-75
2023/05/12 11:41:03;;;;;;;15.90;13.57;;;;;;;;;;5072603;28;20055;-75
2023/05/12 11:43:29;;;;;;;14.05;12.57;;;;;;;;;;5072808;28;20055;-75
2023/05/12 11:45:55;;;;;;;16.30;13.02;;;;;;;;;;5051530;28;20056;-75
2023/05/12 11:48:21;;;;;;;17.77;14.43;;;;;;;;;;5070126;28;20044;-75
2023/05/12 11:50:50;;;;;;;15.95;12.38;;;;;;;;;;5054747;28;20434;-75
2023/05/12 11:53:18;;;;;;;15.95;14.13;;;;;;;;;;5072699;28;20565;-75
2023/05/12 11:55:51;;;;;;;14.35;12.43;;;;;;;;;;5067811;28;20378;-75
2023/05/12 11:58:22;;;;;;;11.98;10.57;;;;;;;;;;5053381;28;20120;-76
2023/05/12 12:00:48;;;;;;;13.82;11.68;;;;;;;;;;5064303;28;20054;-75
2023/05/12 12:03:15;;;;;;;13.90;12.07;;;;;;;;;;5070748;28;20544;-75
2023/05/12 12:05:42;;;;;;;14.43;12.80;;;;;;;;;;5071648;28;20049;-75
2023/05/12 12:08:15;;;;;;;13.55;12.13;;;;;;;;;;5072635;28;20058;-75
2023/05/12 12:10:45;;;;;;;13.68;12.27;;;;;;;;;;5073334;28;20379;-75
2023/05/12 12:13:11;;;;;;;15.50;12.40;;;;;;;;;;5052472;28;20049;-75
2023/05/12 12:15:37;;;;;;;15.25;12.25;;;;;;;;;;5034007;28;20049;-75
2023/05/12 12:18:03;;;;;;;14.07;11.45;;;;;;;;;;5069770;28;20045;-75
2023/05/12 12:20:30;;;;;;;12.93;11.57;;;;;;;;;;5038113;28;20437;-76
2023/05/12 12:22:56;;;;;;;12.18;10.88;;;;;;;;;;5052587;28;20052;-75
2023/05/12 12:25:22;;;;;;;10.07;9.07;;;;;;;;;;5063633;28;20041;-75
2023/05/12 12:27:48;;;;;;;10.73;8.60;;;;;;;;;;5071643;28;20097;-75
2023/05/12 12:30:15;;;;;;;9.63;8.68;;;;;;;;;;5054696;28;20048;-75
2023/05/12 12:32:42;;;;;;;11.13;9.57;;;;;;;;;;5052170;28;20045;-75
2023/05/12 12:35:09;;;;;;;13.15;10.80;;;;;;;;;;5072988;28;20076;-76
2023/05/12 12:37:35;;;;;;;12.23;11.02;;;;;;;;;;5075839;28;20068;-75
2023/05/12 12:40:06;;;;;;;11.63;10.43;;;;;;;;;;5048962;28;20060;-79
2023/05/12 12:42:33;;;;;;;12.68;10.38;;;;;;;;;;5074024;28;20487;-76
2023/05/12 12:44:59;;;;;;;13.00;9.35;;;;;;;;;;5063963;28;20041;-76
2023/05/12 12:47:25;;;;;;;10.25;8.75;;;;;;;;;;5073818;28;20556;-76
2023/05/12 12:49:51;;;;;;;12.85;8.93;;;;;;;;;;5046893;28;20475;-76
2023/05/12 12:52:17;;;;;;;11.43;9.80;;;;;;;;;;5063330;28;20379;-76
2023/05/12 12:54:43;;;;;;;11.63;8.57;;;;;;;;;;5065964;28;20040;-76
2023/05/12 12:57:09;;;;;;;11.10;8.95;;;;;;;;;;5072477;28;20491;-76
2023/05/12 12:59:36;;;;;;;10.95;8.73;;;;;;;;;;5066653;28;20045;-75
2023/05/12 13:02:02;;;;;;;11.35;8.98;;;;;;;;;;5057980;28;20051;-76
2023/05/12 13:04:28;;;;;;;10.18;9.10;;;;;;;;;;5058623;28;20053;-76
2023/05/12 13:06:54;;;;;;;11.85;9.07;;;;;;;;;;5069161;28;20120;-76
2023/05/12 13:09:20;;;;;;;9.68;8.35;;;;;;;;;;5074257;28;20079;-76
2023/05/12 13:11:47;;;;;;;12.30;9.10;;;;;;;;;;5058050;28;20128;-76
2023/05/12 13:14:14;;;;;;;10.95;8.80;;;;;;;;;;5075911;28;20429;-76
2023/05/12 13:16:40;;;;;;;11.52;9.10;;;;;;;;;;5075932;28;20055;-76
2023/05/12 13:19:07;;;;;;;10.50;9.40;;;;;;;;;;5053309;28;20045;-76
2023/05/12 13:21:33;;;;;;;11.48;8.75;;;;;;;;;;5063879;28;20567;-76
2023/05/12 13:24:00;;;;;;;11.13;7.75;;;;;;;;;;5050690;28;20491;-76
2023/05/12 13:26:26;;;;;;;8.68;7.15;;;;;;;;;;5076186;28;20044;-75
2023/05/12 13:28:52;;;;;;;8.15;7.28;;;;;;;;;;5075588;28;20490;-75
2023/05/12 13:31:18;;;;;;;7.97;6.90;;;;;;;;;;5075626;28;20113;-75
2023/05/12 13:33:44;;;;;;;7.78;7.07;;;;;;;;;;5054174;28;20482;-75
2023/05/12 13:36:11;;;;;;;8.18;7.25;;;;;;;;;;5052089;28;20467;-75
2023/05/12 13:38:37;;;;;;;8.60;6.72;;;;;;;;;;5065036;28;20502;-75
2023/05/12 13:41:03;;;;;;;11.48;7.03;;;;;;;;;;5066168;28;20094;-75
2023/05/12 13:43:29;;;;;;;10.60;7.10;;;;;;;;;;5045199;28;20048;-75
2023/05/12 13:45:55;;;;;;;10.02;6.68;;;;;;;;;;5073370;28;20102;-75
2023/05/12 13:48:21;;;;;;;8.38;6.68;;;;;;;;;;5072916;28;20491;-76
2023/05/12 13:50:47;;;;;;;8.80;6.95;;;;;;;;;;5055667;28;20037;-76
2023/05/12 13:53:13;;;;;;;8.95;7.68;;;;;;;;;;5066761;28;20087;-74
2023/05/12 13:55:40;;;;;;;9.10;7.20;;;;;;;;;;5065062;28;20036;-74
2023/05/12 13:58:06;;;;;;;8.00;7.20;;;;;;;;;;5073373;28;20422;-74
2023/05/12 14:00:32;;;;;;;8.70;7.70;;;;;;;;;;5042021;28;20481;-74
2023/05/12 14:02:58;;;;;;;8.27;7.43;;;;;;;;;;5056323;28;20089;-75
2023/05/12 14:05:24;;;;;;;8.25;7.00;;;;;;;;;;5072855;28;20490;-74
2023/05/12 14:07:50;;;;;;;7.90;6.32;;;;;;;;;;5074772;28;20139;-75
2023/05/12 14:10:16;;;;;;;10.55;6.93;;;;;;;;;;5074953;28;20051;-74
2023/05/12 14:12:43;;;;;;;8.48;7.20;;;;;;;;;;5064649;28;20072;-75
2023/05/12 14:15:10;;;;;;;7.53;6.30;;;;;;;;;;5061595;28;20041;-75
2023/05/12 14:17:36;;;;;;;8.15;7.30;;;;;;;;;;5066614;28;20048;-75